Time;durP1;ratioP1;P1;durP2;ratioP2;P2;SDS_P1;SDS_P2;PMS_P1;PMS_P2;Temp;Humidity;BMP_temperature;BMP_pressure;BME280_temperature;BME280_humidity;BME280_pressure;Samples;Min_cycle;Max_cycle;Signal;HPM_P1;HPM_P2
2022/10/24 00:01:46;;;;;;;4.30;2.70;;;;;;;-145.48;100.00;64539.38;6329492;28;20484;-92
2022/10/24 00:04:48;;;;;;;6.15;2.20;;;;;;;-145.48;100.00;64539.38;6329948;28;20040;-91
2022/10/24 00:07:50;;;;;;;3.83;1.95;;;;;;;-145.48;100.00;64539.38;6332882;28;20058;-91
2022/10/24 00:10:52;;;;;;;4.57;2.17;;;;;;;-145.48;100.00;64539.38;6329681;28;20038;-92
2022/10/24 00:13:56;;;;;;;6.22;2.70;;;;;;;-145.48;100.00;64539.38;6326717;28;20197;-91
2022/10/24 00:16:58;;;;;;;4.47;2.45;;;;;;;-145.48;100.00;64539.38;6319736;28;20067;-91
2022/10/24 00:20:00;;;;;;;7.57;2.53;;;;;;;-145.48;100.00;64539.38;6318304;28;20493;-90
2022/10/24 00:23:02;;;;;;;4.25;2.50;;;;;;;-145.48;100.00;64539.38;6331824;28;20063;-91
2022/10/24 00:26:05;;;;;;;6.10;2.50;;;;;;;-145.48;100.00;64539.38;6328196;28;20040;-91
2022/10/24 00:29:07;;;;;;;5.65;2.33;;;;;;;-145.48;100.00;64539.38;6332162;28;20060;-91
2022/10/24 00:32:10;;;;;;;5.57;2.65;;;;;;;-145.48;100.00;64539.38;6329043;28;20032;-91
2022/10/24 00:35:12;;;;;;;3.83;2.70;;;;;;;-145.48;100.00;64539.38;6332351;28;20676;-91
2022/10/24 00:38:14;;;;;;;3.15;2.25;;;;;;;-145.48;100.00;64539.38;6337986;28;20044;-92
2022/10/24 00:41:19;;;;;;;4.18;2.28;;;;;;;-145.48;100.00;64539.38;6334704;28;20084;-92
2022/10/24 00:44:32;;;;;;;3.83;2.50;;;;;;;-145.48;100.00;64539.38;6338264;28;20187;-91
2022/10/24 00:47:34;;;;;;;6.85;2.22;;;;;;;-145.48;100.00;64539.38;6317827;28;20075;-92
2022/10/24 00:50:36;;;;;;;5.25;2.60;;;;;;;-145.48;100.00;64539.38;6336501;28;20126;-92
2022/10/24 00:53:43;;;;;;;5.45;2.60;;;;;;;-145.48;100.00;64539.38;6335059;28;20073;-91
2022/10/24 00:57:04;;;;;;;4.50;2.42;;;;;;;-145.48;100.00;64539.38;6337859;28;20047;-91
2022/10/24 01:00:11;;;;;;;3.55;2.20;;;;;;;-145.48;100.00;64539.38;6336743;28;20047;-91
2022/10/24 01:03:13;;;;;;;5.78;2.63;;;;;;;-145.48;100.00;64539.38;6335046;28;20295;-91
2022/10/24 01:07:06;;;;;;;7.00;2.50;;;;;;;-145.48;100.00;64539.38;6345757;27;20614;-91
2022/10/24 01:10:36;;;;;;;4.45;2.42;;;;;;;-145.48;100.00;64539.38;6290462;28;20056;-91
2022/10/24 01:14:10;;;;;;;5.00;2.50;;;;;;;-145.48;100.00;64539.38;6280916;28;20514;-91
2022/10/24 01:17:30;;;;;;;6.55;2.33;;;;;;;-145.48;100.00;64539.38;6304410;28;20095;-91
2022/10/24 01:21:01;;;;;;;7.75;2.75;;;;;;;-145.48;100.00;64539.38;6308383;28;20056;-91
2022/10/24 01:24:24;;;;;;;7.93;2.30;;;;;;;-145.48;100.00;64539.38;6308590;28;20108;-91
2022/10/24 01:27:46;;;;;;;7.68;2.92;;;;;;;-145.48;100.00;64539.38;6308177;28;20058;-92
2022/10/24 01:30:51;;;;;;;;;;;;;;;-145.48;100.00;64539.38;6300141;28;20098;-91
2022/10/24 01:34:02;;;;;;;4.63;2.55;;;;;;;-145.48;100.00;64539.38;6298093;28;20381;-91
2022/10/24 01:37:18;;;;;;;10.68;2.47;;;;;;;-145.48;100.00;64539.38;6305002;28;20063;-91
2022/10/24 01:40:28;;;;;;;7.22;2.47;;;;;;;-145.48;100.00;64539.38;6305365;28;20043;-91
2022/10/24 01:44:01;;;;;;;4.80;2.60;;;;;;;-145.48;100.00;64539.38;6303089;28;20131;-91
2022/10/24 01:47:42;;;;;;;8.35;3.13;;;;;;;-145.48;100.00;64539.38;6332278;28;20373;-91
2022/10/24 01:50:48;;;;;;;6.15;2.58;;;;;;;-145.48;100.00;64539.38;6255322;28;20056;-91
2022/10/24 01:53:51;;;;;;;5.60;2.85;;;;;;;-145.48;100.00;64539.38;6239441;28;20080;-91
2022/10/24 01:56:53;;;;;;;3.08;2.33;;;;;;;-145.48;100.00;64539.38;6256559;28;20052;-91
2022/10/24 01:59:55;;;;;;;4.25;2.40;;;;;;;-145.48;100.00;64539.38;6257213;28;20788;-91
2022/10/24 02:03:02;;;;;;;4.90;3.00;;;;;;;-145.48;100.00;64539.38;6255554;28;20175;-91
2022/10/24 02:06:12;;;;;;;5.70;3.40;;;;;;;-145.48;100.00;64539.38;6246460;28;20064;-91
2022/10/24 02:09:16;;;;;;;5.95;3.42;;;;;;;-145.48;100.00;64539.38;6254117;28;20041;-91
2022/10/24 02:12:21;;;;;;;10.02;3.00;;;;;;;-145.48;100.00;64539.38;6255405;28;20503;-91
2022/10/24 02:15:30;;;;;;;6.45;2.90;;;;;;;-145.48;100.00;64539.38;6252690;28;20122;-91
2022/10/24 02:18:33;;;;;;;5.65;3.10;;;;;;;-145.48;100.00;64539.38;6245784;28;20056;-91
2022/10/24 02:22:07;;;;;;;5.15;3.00;;;;;;;-145.48;100.00;64539.38;6251988;28;20044;-91
2022/10/24 02:25:19;;;;;;;5.55;2.88;;;;;;;-145.48;100.00;64539.38;6271273;28;20043;-91
2022/10/24 02:28:25;;;;;;;7.13;3.47;;;;;;;-145.48;100.00;64539.38;6331742;28;20036;-90
2022/10/24 02:31:34;;;;;;;10.10;3.08;;;;;;;-145.48;100.00;64539.38;6329240;28;20039;-90
2022/10/24 02:34:38;;;;;;;7.45;2.83;;;;;;;-145.48;100.00;64539.38;6327784;28;20508;-91
2022/10/24 02:37:46;;;;;;;5.40;2.65;;;;;;;-145.48;100.00;64539.38;6333005;28;20177;-91
2022/10/24 02:40:51;;;;;;;6.72;2.83;;;;;;;-145.48;100.00;64539.38;6334516;28;20035;-91
2022/10/24 02:43:55;;;;;;;6.35;2.90;;;;;;;-145.48;100.00;64539.38;6332488;28;20071;-91
2022/10/24 02:47:02;;;;;;;5.32;2.40;;;;;;;-145.48;100.00;64539.38;6331858;28;20066;-91
2022/10/24 02:50:05;;;;;;;6.28;2.63;;;;;;;-145.48;100.00;64539.38;6332411;28;20039;-91
2022/10/24 02:53:15;;;;;;;7.63;2.70;;;;;;;-145.48;100.00;64539.38;6333634;28;20058;-91
2022/10/24 02:56:17;;;;;;;8.50;2.58;;;;;;;-145.48;100.00;64539.38;6332197;28;20044;-91
2022/10/24 02:59:19;;;;;;;6.03;2.95;;;;;;;-145.48;100.00;64539.38;6332487;28;20048;-91
2022/10/24 03:02:22;;;;;;;7.20;3.03;;;;;;;-145.48;100.00;64539.38;6336078;28;20046;-91
2022/10/24 03:05:24;;;;;;;6.70;3.08;;;;;;;-145.48;100.00;64539.38;6336111;28;20031;-91
2022/10/24 03:08:26;;;;;;;4.35;2.72;;;;;;;-145.48;100.00;64539.38;6335592;28;20118;-91
2022/10/24 03:11:29;;;;;;;6.90;2.50;;;;;;;-145.48;100.00;64539.38;6335814;28;20067;-92
2022/10/24 03:14:31;;;;;;;3.13;2.53;;;;;;;-145.48;100.00;64539.38;6331676;28;20401;-91
2022/10/24 03:17:33;;;;;;;4.68;2.63;;;;;;;-145.48;100.00;64539.38;6332235;28;20348;-91
2022/10/24 03:20:35;;;;;;;4.20;2.47;;;;;;;-145.48;100.00;64539.38;6334143;28;20100;-91
2022/10/24 03:23:37;;;;;;;5.43;2.75;;;;;;;-145.48;100.00;64539.38;6318968;28;20059;-91
2022/10/24 03:26:39;;;;;;;6.65;2.88;;;;;;;-145.48;100.00;64539.38;6328588;28;20039;-91
2022/10/24 03:29:41;;;;;;;5.05;2.63;;;;;;;-145.48;100.00;64539.38;6337472;28;20524;-91
2022/10/24 03:32:42;;;;;;;5.68;2.38;;;;;;;-145.48;100.00;64539.38;6329353;28;20040;-91
2022/10/24 03:35:45;;;;;;;5.95;2.60;;;;;;;-145.48;100.00;64539.38;6335805;28;20051;-91
2022/10/24 03:38:47;;;;;;;5.60;3.00;;;;;;;-145.48;100.00;64539.38;6332451;28;20529;-90
2022/10/24 03:41:49;;;;;;;5.32;2.70;;;;;;;-145.48;100.00;64539.38;6332683;28;20032;-91
2022/10/24 03:44:51;;;;;;;4.82;2.63;;;;;;;-145.48;100.00;64539.38;6335010;28;20032;-91
2022/10/24 03:47:53;;;;;;;5.22;2.67;;;;;;;-145.48;100.00;64539.38;6324598;28;20042;-92
2022/10/24 03:50:55;;;;;;;7.88;3.30;;;;;;;-145.48;100.00;64539.38;6336911;28;20047;-91
2022/10/24 03:53:57;;;;;;;8.02;3.13;;;;;;;-145.48;100.00;64539.38;6336175;28;20036;-91
2022/10/24 03:56:59;;;;;;;6.40;3.13;;;;;;;-145.48;100.00;64539.38;6336211;28;20489;-91
2022/10/24 04:00:00;;;;;;;6.05;2.80;;;;;;;-145.48;100.00;64539.38;6334817;28;20044;-91
2022/10/24 04:03:02;;;;;;;6.80;2.92;;;;;;;-145.48;100.00;64539.38;6329838;28;20035;-91
2022/10/24 04:06:05;;;;;;;4.38;2.83;;;;;;;-145.48;100.00;64539.38;6327962;28;20076;-91
2022/10/24 04:09:06;;;;;;;6.97;2.67;;;;;;;-145.48;100.00;64539.38;6335954;28;20027;-91
2022/10/24 04:12:08;;;;;;;6.65;2.42;;;;;;;-145.48;100.00;64539.38;6339428;28;20169;-91
2022/10/24 04:15:11;;;;;;;6.25;2.70;;;;;;;-145.48;100.00;64539.38;6320587;28;20074;-91
2022/10/24 04:18:13;;;;;;;4.78;2.60;;;;;;;-145.48;100.00;64539.38;6340939;28;20043;-91
2022/10/24 04:21:15;;;;;;;6.38;2.92;;;;;;;-145.48;100.00;64539.38;6334983;28;20074;-91
2022/10/24 04:24:22;;;;;;;5.55;3.13;;;;;;;-145.48;100.00;64539.38;6332230;28;20055;-91
2022/10/24 04:27:25;;;;;;;7.35;3.13;;;;;;;-145.48;100.00;64539.38;6340568;28;20675;-91
2022/10/24 04:30:28;;;;;;;6.80;3.13;;;;;;;-145.48;100.00;64539.38;6339187;28;20036;-91
2022/10/24 04:33:30;;;;;;;7.78;3.50;;;;;;;-145.48;100.00;64539.38;6340272;28;20066;-91
2022/10/24 04:36:33;;;;;;;7.68;3.42;;;;;;;-145.48;100.00;64539.38;6336349;28;20112;-91
2022/10/24 04:39:35;;;;;;;9.45;3.22;;;;;;;-145.48;100.00;64539.38;6337407;28;20312;-91
2022/10/24 04:42:37;;;;;;;8.85;3.00;;;;;;;-145.48;100.00;64539.38;6339123;28;20035;-91
2022/10/24 04:45:39;;;;;;;8.32;3.42;;;;;;;-145.48;100.00;64539.38;6333794;28;20108;-92
2022/10/24 04:48:41;;;;;;;6.43;3.42;;;;;;;-145.48;100.00;64539.38;6339068;28;20044;-91
2022/10/24 04:51:43;;;;;;;6.88;3.30;;;;;;;-145.48;100.00;64539.38;6335223;28;20512;-91
2022/10/24 04:54:45;;;;;;;6.90;3.80;;;;;;;-145.48;100.00;64539.38;6339535;28;20067;-91
2022/10/24 04:57:47;;;;;;;6.15;3.38;;;;;;;-145.48;100.00;64539.38;6337852;28;20386;-91
2022/10/24 05:00:49;;;;;;;7.65;2.95;;;;;;;-145.48;100.00;64539.38;6339809;28;20089;-91
2022/10/24 05:03:51;;;;;;;10.90;3.70;;;;;;;-145.48;100.00;64539.38;6340583;28;20039;-91
2022/10/24 05:06:54;;;;;;;11.65;3.72;;;;;;;-145.48;100.00;64539.38;6339978;28;20126;-91
2022/10/24 05:09:55;;;;;;;9.30;3.60;;;;;;;-145.48;100.00;64539.38;6329615;28;20047;-91
2022/10/24 05:12:57;;;;;;;9.00;3.58;;;;;;;-145.48;100.00;64539.38;6332531;28;20032;-92
2022/10/24 05:16:00;;;;;;;10.13;3.35;;;;;;;-145.48;100.00;64539.38;6335626;28;20158;-91
2022/10/24 05:19:02;;;;;;;7.05;3.42;;;;;;;-145.48;100.00;64539.38;6329365;28;20039;-91
2022/10/24 05:22:04;;;;;;;8.50;3.20;;;;;;;-145.48;100.00;64539.38;6332017;28;20040;-92
2022/10/24 05:25:11;;;;;;;10.60;3.63;;;;;;;-145.48;100.00;64539.38;6331471;28;20043;-91
2022/10/24 05:28:13;;;;;;;8.75;3.58;;;;;;;-145.48;100.00;64539.38;6338682;28;20039;-91
2022/10/24 05:31:15;;;;;;;8.40;3.40;;;;;;;-145.48;100.00;64539.38;6334182;28;20042;-91
2022/10/24 05:34:17;;;;;;;6.95;3.53;;;;;;;-145.48;100.00;64539.38;6333268;28;20521;-91
2022/10/24 05:37:19;;;;;;;7.97;3.53;;;;;;;-145.48;100.00;64539.38;6334443;28;20686;-91
2022/10/24 05:40:21;;;;;;;7.65;3.03;;;;;;;-145.48;100.00;64539.38;6335585;28;20046;-91
2022/10/24 05:43:23;;;;;;;6.15;3.58;;;;;;;-145.48;100.00;64539.38;6337596;28;20047;-91
2022/10/24 05:46:25;;;;;;;8.30;4.90;;;;;;;-145.48;100.00;64539.38;6330890;28;20181;-91
2022/10/24 05:49:27;;;;;;;7.63;3.70;;;;;;;-145.48;100.00;64539.38;6339886;28;20044;-91
2022/10/24 05:52:29;;;;;;;13.38;3.97;;;;;;;-145.48;100.00;64539.38;6337073;28;20049;-91
2022/10/24 05:55:32;;;;;;;11.57;3.50;;;;;;;-145.48;100.00;64539.38;6334062;28;20561;-91
2022/10/24 05:58:34;;;;;;;10.15;4.47;;;;;;;-145.48;100.00;64539.38;6337803;28;20048;-91
2022/10/24 06:01:36;;;;;;;16.45;6.18;;;;;;;-145.48;100.00;64539.38;6337753;28;20043;-91
2022/10/24 06:04:38;;;;;;;9.20;4.18;;;;;;;-145.48;100.00;64539.38;6338605;28;20067;-91
2022/10/24 06:07:40;;;;;;;9.95;3.83;;;;;;;-145.48;100.00;64539.38;6309092;28;20092;-91
2022/10/24 06:10:47;;;;;;;8.27;3.08;;;;;;;-145.48;100.00;64539.38;6324322;28;20066;-91
2022/10/24 06:13:49;;;;;;;7.35;3.20;;;;;;;-145.48;100.00;64539.38;6339060;28;20467;-92
2022/10/24 06:16:51;;;;;;;7.53;3.35;;;;;;;-145.48;100.00;64539.38;6337614;28;20097;-91
2022/10/24 06:19:53;;;;;;;7.68;3.33;;;;;;;-145.48;100.00;64539.38;6329397;28;20093;-91
2022/10/24 06:22:55;;;;;;;7.95;3.17;;;;;;;-145.48;100.00;64539.38;6336917;28;20042;-92
2022/10/24 06:25:57;;;;;;;8.50;3.30;;;;;;;-145.48;100.00;64539.38;6335499;28;20485;-91
2022/10/24 06:29:00;;;;;;;10.85;3.38;;;;;;;-145.48;100.00;64539.38;6332231;28;20703;-93
2022/10/24 06:32:02;;;;;;;8.52;3.42;;;;;;;-145.48;100.00;64539.38;6328866;28;20023;-91
2022/10/24 06:35:05;;;;;;;20.30;4.28;;;;;;;-145.48;100.00;64539.38;6330673;28;20043;-92
2022/10/24 06:38:07;;;;;;;9.27;3.78;;;;;;;-145.48;100.00;64539.38;6337708;28;20063;-91
2022/10/24 06:41:12;;;;;;;10.40;3.40;;;;;;;-145.48;100.00;64539.38;6335449;28;20043;-91
2022/10/24 06:44:14;;;;;;;10.25;3.88;;;;;;;-145.48;100.00;64539.38;6334273;28;20046;-92
2022/10/24 06:47:17;;;;;;;9.13;3.30;;;;;;;-145.48;100.00;64539.38;6333875;28;20433;-92
2022/10/24 06:50:19;;;;;;;10.35;3.50;;;;;;;-145.48;100.00;64539.38;6336379;28;20066;-91
2022/10/24 06:53:21;;;;;;;7.47;3.15;;;;;;;-145.48;100.00;64539.38;6337439;28;20508;-91
2022/10/24 06:56:23;;;;;;;10.40;3.40;;;;;;;-145.48;100.00;64539.38;6337248;28;20131;-92
2022/10/24 06:59:25;;;;;;;5.60;3.13;;;;;;;-145.48;100.00;64539.38;6337649;28;20721;-91
2022/10/24 07:02:27;;;;;;;8.57;3.15;;;;;;;-145.48;100.00;64539.38;6334093;28;20061;-91
2022/10/24 07:05:30;;;;;;;6.05;3.10;;;;;;;-145.48;100.00;64539.38;6334769;28;20125;-91
2022/10/24 07:08:32;;;;;;;5.22;3.20;;;;;;;-145.48;100.00;64539.38;6336790;28;20051;-92
2022/10/24 07:11:34;;;;;;;8.32;3.42;;;;;;;-145.48;100.00;64539.38;6328382;28;20054;-92
2022/10/24 07:14:36;;;;;;;7.50;3.03;;;;;;;-145.48;100.00;64539.38;6315708;28;20081;-91
2022/10/24 07:17:40;;;;;;;11.32;3.10;;;;;;;-145.48;100.00;64539.38;6335667;28;20078;-92
2022/10/24 07:20:42;;;;;;;7.57;2.90;;;;;;;-145.48;100.00;64539.38;6335033;28;20084;-92
2022/10/24 07:23:44;;;;;;;15.23;3.25;;;;;;;-145.48;100.00;64539.38;6336380;28;20034;-91
2022/10/24 07:26:46;;;;;;;10.15;3.53;;;;;;;-145.48;100.00;64539.38;6336634;28;20039;-91
2022/10/24 07:29:48;;;;;;;6.13;2.90;;;;;;;-145.48;100.00;64539.38;6335294;28;20043;-92
2022/10/24 07:32:50;;;;;;;9.57;2.53;;;;;;;-145.48;100.00;64539.38;6334486;28;20032;-92
2022/10/24 07:35:52;;;;;;;8.05;3.00;;;;;;;-145.48;100.00;64539.38;6334620;28;20507;-92
2022/10/24 07:38:56;;;;;;;7.63;2.65;;;;;;;-145.48;100.00;64539.38;6333833;28;20058;-93
2022/10/24 07:41:58;;;;;;;12.65;3.30;;;;;;;-145.48;100.00;64539.38;6331038;28;20566;-92
2022/10/24 07:45:01;;;;;;;8.32;3.00;;;;;;;-145.48;100.00;64539.38;6333316;28;20398;-92
2022/10/24 07:48:05;;;;;;;6.90;3.42;;;;;;;-145.48;100.00;64539.38;6339111;28;20493;-92
2022/10/24 07:51:10;;;;;;;8.63;2.58;;;;;;;-145.48;100.00;64539.38;6342031;28;20657;-92
2022/10/24 07:54:12;;;;;;;16.52;3.00;;;;;;;-145.48;100.00;64539.38;6329223;28;20431;-92
2022/10/24 07:57:14;;;;;;;5.15;2.70;;;;;;;-145.48;100.00;64539.38;6340921;28;20039;-92
2022/10/24 08:00:17;;;;;;;5.07;2.20;;;;;;;-145.48;100.00;64539.38;6341086;28;20053;-93
2022/10/24 08:03:19;;;;;;;7.97;3.30;;;;;;;-145.48;100.00;64539.38;6339169;28;20043;-92
2022/10/24 08:06:27;;;;;;;7.75;2.72;;;;;;;-145.48;100.00;64539.38;6334007;28;20039;-93
2022/10/24 08:09:29;;;;;;;9.93;2.42;;;;;;;-145.48;100.00;64539.38;6336083;28;20096;-93
2022/10/24 08:12:31;;;;;;;6.40;2.25;;;;;;;-145.48;100.00;64539.38;6338885;28;20040;-92
2022/10/24 08:15:33;;;;;;;8.25;2.70;;;;;;;-145.48;100.00;64539.38;6340325;28;20473;-93
2022/10/24 08:18:36;;;;;;;4.80;2.30;;;;;;;-145.48;100.00;64539.38;6323225;28;20118;-93
2022/10/24 08:21:40;;;;;;;10.50;2.17;;;;;;;-145.48;100.00;64539.38;6333442;28;20184;-92
2022/10/24 08:24:43;;;;;;;6.18;2.70;;;;;;;-145.48;100.00;64539.38;6340726;28;20058;-93
2022/10/24 08:27:45;;;;;;;5.50;2.03;;;;;;;-145.48;100.00;64539.38;6333698;28;20054;-92
2022/10/24 08:30:55;;;;;;;5.22;2.13;;;;;;;-145.48;100.00;64539.38;6339905;28;20047;-93
2022/10/24 08:33:58;;;;;;;21.20;2.63;;;;;;;-145.48;100.00;64539.38;6336067;28;20099;-92
2022/10/24 08:37:00;;;;;;;5.22;2.00;;;;;;;-145.48;100.00;64539.38;6316349;28;20079;-92
2022/10/24 08:40:06;;;;;;;8.25;2.95;;;;;;;-145.48;100.00;64539.38;6339746;28;20044;-93
2022/10/24 08:43:10;;;;;;;9.23;3.08;;;;;;;-145.48;100.00;64539.38;6338654;28;20417;-92
2022/10/24 08:46:40;;;;;;;8.35;2.50;;;;;;;-145.48;100.00;64539.38;6337949;28;20577;-93
2022/10/24 08:49:53;;;;;;;10.02;2.03;;;;;;;-145.48;100.00;64539.38;6336371;28;20031;-93
2022/10/24 08:52:59;;;;;;;4.30;2.72;;;;;;;-145.48;100.00;64539.38;6338383;28;20707;-94
2022/10/24 08:56:02;;;;;;;6.38;2.30;;;;;;;-145.48;100.00;64539.38;6336430;28;20039;-94
2022/10/24 08:59:05;;;;;;;6.50;2.30;;;;;;;-145.48;100.00;64539.38;6337895;28;20031;-93
2022/10/24 09:02:07;;;;;;;8.35;2.42;;;;;;;-145.48;100.00;64539.38;6338210;27;20028;-94
2022/10/24 09:05:51;;;;;;;6.90;2.10;;;;;;;-145.48;100.00;64539.38;6338731;28;20039;-92
2022/10/24 09:08:57;;;;;;;5.28;2.55;;;;;;;-145.48;100.00;64539.38;6303647;28;20051;-93
2022/10/24 09:12:03;;;;;;;9.05;2.17;;;;;;;-145.48;100.00;64539.38;6305556;28;20068;-93
2022/10/24 09:15:15;;;;;;;9.80;2.47;;;;;;;-145.48;100.00;64539.38;6294938;28;20087;-92
2022/10/24 09:18:26;;;;;;;7.88;2.30;;;;;;;-145.48;100.00;64539.38;6302304;28;20067;-93
2022/10/24 09:21:29;;;;;;;6.65;2.30;;;;;;;-145.48;100.00;64539.38;6279813;28;20172;-92
2022/10/24 09:24:50;;;;;;;9.77;3.38;;;;;;;-145.48;100.00;64539.38;6292793;28;20056;-92
2022/10/24 09:27:52;;;;;;;10.10;2.30;;;;;;;-145.48;100.00;64539.38;6310133;28;20593;-93
2022/10/24 09:30:54;;;;;;;9.57;2.10;;;;;;;-145.48;100.00;64539.38;6309581;28;20489;-93
2022/10/24 09:33:59;;;;;;;4.82;2.30;;;;;;;-145.48;100.00;64539.38;6304424;28;20118;-93
2022/10/24 09:37:01;;;;;;;5.38;2.22;;;;;;;-145.48;100.00;64539.38;6288885;28;20048;-94
2022/10/24 09:40:12;;;;;;;7.60;2.25;;;;;;;-145.48;100.00;64539.38;6300800;28;20077;-93
2022/10/24 09:43:22;;;;;;;8.13;2.13;;;;;;;-145.48;100.00;64539.38;6305690;28;20792;-93
2022/10/24 09:46:27;;;;;;;4.13;1.77;;;;;;;-145.48;100.00;64539.38;6346482;27;20040;-93
2022/10/24 09:49:40;;;;;;;6.45;2.00;;;;;;;-145.48;100.00;64539.38;6339826;28;20064;-92
2022/10/24 09:52:49;;;;;;;8.63;2.17;;;;;;;-145.48;100.00;64539.38;6337500;28;20038;-93
2022/10/24 09:55:58;;;;;;;8.05;1.90;;;;;;;-145.48;100.00;64539.38;6337484;28;20054;-94
2022/10/24 09:59:22;;;;;;;6.15;2.10;;;;;;;-145.48;100.00;64539.38;6336013;28;20046;-93
2022/10/24 10:02:27;;;;;;;4.30;1.80;;;;;;;-145.48;100.00;64539.38;6329924;28;20046;-93
2022/10/24 10:05:57;;;;;;;5.63;2.00;;;;;;;-145.48;100.00;64539.38;6336118;28;20048;-93
2022/10/24 10:08:59;;;;;;;8.07;2.33;;;;;;;-145.48;100.00;64539.38;6330856;28;20043;-93
2022/10/24 10:12:02;;;;;;;9.40;2.10;;;;;;;-145.48;100.00;64539.38;6326088;28;20142;-93
2022/10/24 10:15:36;;;;;;;4.47;1.60;;;;;;;-145.48;100.00;64539.38;6328399;27;20688;-93
2022/10/24 10:18:41;;;;;;;4.45;1.90;;;;;;;-145.48;100.00;64539.38;6328704;28;20055;-93
2022/10/24 10:22:01;;;;;;;5.90;1.70;;;;;;;-145.48;100.00;64539.38;6328054;28;20040;-94
2022/10/24 10:25:05;;;;;;;5.80;2.03;;;;;;;-145.48;100.00;64539.38;6327925;28;20044;-94
2022/10/24 10:28:19;;;;;;;4.97;1.80;;;;;;;-145.48;100.00;64539.38;6337036;28;20051;-94
2022/10/24 10:31:48;;;;;;;7.30;2.17;;;;;;;-145.48;100.00;64539.38;6328955;28;20143;-93
2022/10/24 10:35:19;;;;;;;6.40;1.90;;;;;;;-145.48;100.00;64539.38;6330805;28;20054;-93
2022/10/24 10:38:50;;;;;;;5.63;2.28;;;;;;;-145.48;100.00;64539.38;6290758;28;20054;-94
2022/10/24 10:42:30;;;;;;;7.25;2.08;;;;;;;-145.48;100.00;64539.38;6286307;28;20052;-94
2022/10/24 10:45:53;;;;;;;11.85;2.13;;;;;;;-145.48;100.00;64539.38;6306339;28;20051;-93
2022/10/24 10:49:33;;;;;;;7.05;2.33;;;;;;;-145.48;100.00;64539.38;6301952;28;20056;-92
2022/10/24 10:52:48;;;;;;;7.38;1.77;;;;;;;-145.48;100.00;64539.38;6307137;28;20606;-93
2022/10/24 10:56:04;;;;;;;5.57;1.88;;;;;;;-145.48;100.00;64539.38;6307801;28;20052;-92
2022/10/24 10:59:24;;;;;;;5.97;1.40;;;;;;;-145.48;100.00;64539.38;6306571;28;20409;-92
2022/10/24 11:03:11;;;;;;;10.00;2.00;;;;;;;-145.48;100.00;64539.38;6290834;28;20508;-92
2022/10/24 11:06:48;;;;;;;4.80;2.13;;;;;;;-145.48;100.00;64539.38;6216858;28;20053;-92
2022/10/24 11:10:04;;;;;;;6.03;1.15;;;;;;;-145.48;100.00;64539.38;6194066;28;20066;-93
2022/10/24 11:13:17;;;;;;;6.30;1.48;;;;;;;-145.48;100.00;64539.38;6185081;28;20058;-92
2022/10/24 11:16:30;;;;;;;3.88;1.17;;;;;;;-145.48;100.00;64539.38;6169106;28;20547;-92
2022/10/24 11:19:58;;;;;;;1.67;1.02;;;;;;;-145.48;100.00;64539.38;6167344;28;20064;-92
2022/10/24 11:23:01;;;;;;;4.03;1.13;;;;;;;-145.48;100.00;64539.38;6168455;28;20096;-93
2022/10/24 11:26:27;;;;;;;1.35;0.80;;;;;;;-145.48;100.00;64539.38;6164293;28;20066;-93
2022/10/24 11:29:46;;;;;;;4.78;1.10;;;;;;;-145.48;100.00;64539.38;6191674;28;20065;-93
2022/10/24 11:32:57;;;;;;;5.03;1.23;;;;;;;-145.48;100.00;64539.38;6185211;28;20054;-93
2022/10/24 11:36:07;;;;;;;;;;;;;;;-145.48;100.00;64539.38;6171811;28;20054;-93
2022/10/24 11:39:13;;;;;;;3.80;1.25;;;;;;;-145.48;100.00;64539.38;6169603;28;19933;-93
2022/10/24 11:42:44;;;;;;;5.35;1.40;;;;;;;-145.48;100.00;64539.38;6191768;28;20049;-93
2022/10/24 11:45:57;;;;;;;4.78;1.20;;;;;;;-145.48;100.00;64539.38;6257745;28;20173;-92
2022/10/24 11:49:16;;;;;;;3.78;1.20;;;;;;;-145.48;100.00;64539.38;6311415;28;20036;-93
2022/10/24 11:52:23;;;;;;;6.75;1.60;;;;;;;-145.48;100.00;64539.38;6304242;28;20052;-94
2022/10/24 11:55:40;;;;;;;6.60;1.15;;;;;;;-145.48;100.00;64539.38;6302745;28;20052;-93
2022/10/24 11:58:56;;;;;;;3.65;0.98;;;;;;;-145.48;100.00;64539.38;6298647;28;20170;-94
2022/10/24 12:02:17;;;;;;;3.17;0.90;;;;;;;-145.48;100.00;64539.38;6291243;28;20047;-94
2022/10/24 12:05:49;;;;;;;3.35;0.90;;;;;;;-145.48;100.00;64539.38;6307674;28;20048;-94
2022/10/24 12:09:26;;;;;;;6.18;1.38;;;;;;;-145.48;100.00;64539.38;6229979;28;20565;-93
2022/10/24 12:13:12;;;;;;;3.28;1.08;;;;;;;-145.48;100.00;64539.38;6231770;28;20073;-94
2022/10/24 12:16:45;;;;;;;3.27;1.00;;;;;;;-145.48;100.00;64539.38;6224438;28;20065;-93
2022/10/24 12:19:49;;;;;;;4.25;1.23;;;;;;;-145.48;100.00;64539.38;6210198;28;20838;-93
2022/10/24 12:22:52;;;;;;;2.45;1.00;;;;;;;-145.48;100.00;64539.38;6230753;28;20589;-93
2022/10/24 12:26:34;;;;;;;2.33;0.90;;;;;;;-145.48;100.00;64539.38;6220588;28;20053;-92
2022/10/24 12:29:37;;;;;;;2.97;0.80;;;;;;;-145.48;100.00;64539.38;6106546;29;20170;-92
2022/10/24 12:32:49;;;;;;;9.57;1.30;;;;;;;-145.48;100.00;64539.38;6116777;29;20059;-93
2022/10/24 12:35:56;;;;;;;2.45;0.75;;;;;;;-145.48;100.00;64539.38;6115862;29;20142;-95
2022/10/24 12:39:03;;;;;;;3.38;1.10;;;;;;;-145.48;100.00;64539.38;6112142;29;20063;-93
2022/10/24 12:42:13;;;;;;;2.78;0.70;;;;;;;-145.48;100.00;64539.38;6083346;29;20044;-93
2022/10/24 12:45:31;;;;;;;2.83;1.13;;;;;;;-145.48;100.00;64539.38;6165581;28;20061;-93
2022/10/24 12:48:35;;;;;;;2.28;0.65;;;;;;;-145.48;100.00;64539.38;6179902;28;20057;-92
2022/10/24 12:51:40;;;;;;;3.15;1.00;;;;;;;-145.48;100.00;64539.38;6182335;28;20491;-93
2022/10/24 12:54:46;;;;;;;5.50;1.10;;;;;;;-145.48;100.00;64539.38;6181110;28;20046;-93
2022/10/24 12:57:51;;;;;;;5.68;1.52;;;;;;;-145.48;100.00;64539.38;6197120;28;20065;-92
2022/10/24 13:01:06;;;;;;;5.57;1.02;;;;;;;-145.48;100.00;64539.38;6163213;28;20847;-93
2022/10/24 13:04:32;;;;;;;4.32;0.98;;;;;;;-145.48;100.00;64539.38;6167148;28;20504;-92
2022/10/24 13:08:12;;;;;;;5.90;1.33;;;;;;;-145.48;100.00;64539.38;6326505;28;20044;-92
2022/10/24 13:11:35;;;;;;;5.65;1.20;;;;;;;-145.48;100.00;64539.38;6299457;28;20052;-91
2022/10/24 13:15:11;;;;;;;3.92;0.90;;;;;;;-145.48;100.00;64539.38;6311602;28;20044;-92
2022/10/24 13:18:31;;;;;;;3.75;1.20;;;;;;;-145.48;100.00;64539.38;6314475;28;20044;-92
2022/10/24 13:21:53;;;;;;;2.10;0.98;;;;;;;-145.48;100.00;64539.38;6308722;28;20040;-92
2022/10/24 13:24:56;;;;;;;3.78;0.80;;;;;;;-145.48;100.00;64539.38;6311426;28;20036;-92
2022/10/24 13:28:22;;;;;;;3.33;1.17;;;;;;;-145.48;100.00;64539.38;6311851;28;20094;-92
2022/10/24 13:31:25;;;;;;;4.15;1.20;;;;;;;-145.48;100.00;64539.38;6287697;28;20055;-92
2022/10/24 13:34:43;;;;;;;3.97;0.82;;;;;;;-145.48;100.00;64539.38;6311518;28;20447;-93
2022/10/24 13:37:50;;;;;;;5.68;1.48;;;;;;;-145.48;100.00;64539.38;6308547;28;20097;-91
2022/10/24 13:40:52;;;;;;;4.00;0.90;;;;;;;-145.48;100.00;64539.38;6293403;28;20067;-93
2022/10/24 13:44:18;;;;;;;4.30;1.17;;;;;;;-145.48;100.00;64539.38;6307177;28;20055;-92
2022/10/24 13:47:32;;;;;;;3.75;1.00;;;;;;;-145.48;100.00;64539.38;6235694;28;20874;-92
2022/10/24 13:50:40;;;;;;;2.85;0.90;;;;;;;-145.48;100.00;64539.38;6225637;28;20535;-92
2022/10/24 13:53:59;;;;;;;;;;;;;;;-145.48;100.00;64539.38;6245114;28;20632;-92
2022/10/24 13:57:02;;;;;;;3.92;1.13;;;;;;;-145.48;100.00;64539.38;6237508;28;19936;-92
2022/10/24 14:00:17;;;;;;;4.10;1.10;;;;;;;-145.48;100.00;64539.38;6239008;28;20048;-91
2022/10/24 14:03:22;;;;;;;3.58;0.93;;;;;;;-145.48;100.00;64539.38;6239289;28;20053;-92
2022/10/24 14:06:32;;;;;;;5.53;0.88;;;;;;;-145.48;100.00;64539.38;6227006;28;20636;-92
2022/10/24 14:09:42;;;;;;;4.90;1.13;;;;;;;-145.48;100.00;64539.38;6241665;28;20120;-92
2022/10/24 14:12:45;;;;;;;;;;;;;;;-145.48;100.00;64539.38;6218085;28;20061;-92
2022/10/24 14:16:00;;;;;;;7.07;0.90;;;;;;;-145.48;100.00;64539.38;6237560;28;20398;-93
2022/10/24 14:19:25;;;;;;;4.65;0.77;;;;;;;-145.48;100.00;64539.38;6240986;28;20049;-93